sensor_id;sensor_type;location;lat;lon;timestamp;P1;durP1;ratioP1;P2;durP2;ratioP2
45114;SDS011;30877;43.706;10.780;2023-08-20T00:01:28;6.40;;;4.47;;
45114;SDS011;30877;43.706;10.780;2023-08-20T00:03:57;10.95;;;5.03;;
45114;SDS011;30877;43.706;10.780;2023-08-20T00:06:26;5.25;;;4.07;;
45114;SDS011;30877;43.706;10.780;2023-08-20T00:08:56;8.05;;;4.97;;
45114;SDS011;30877;43.706;10.780;2023-08-20T00:11:24;6.40;;;4.70;;
45114;SDS011;30877;43.706;10.780;2023-08-20T00:13:53;6.07;;;4.65;;
45114;SDS011;30877;43.706;10.780;2023-08-20T00:16:21;5.20;;;4.22;;
45114;SDS011;30877;43.706;10.780;2023-08-20T00:18:50;8.35;;;3.75;;
45114;SDS011;30877;43.706;10.780;2023-08-20T00:21:18;5.57;;;4.03;;
45114;SDS011;30877;43.706;10.780;2023-08-20T00:23:47;5.03;;;3.95;;
45114;SDS011;30877;43.706;10.780;2023-08-20T00:26:18;6.63;;;4.38;;
45114;SDS011;30877;43.706;10.780;2023-08-20T00:28:46;4.45;;;3.90;;
45114;SDS011;30877;43.706;10.780;2023-08-20T00:31:15;8.85;;;4.15;;
45114;SDS011;30877;43.706;10.780;2023-08-20T00:33:43;7.82;;;4.40;;
45114;SDS011;30877;43.706;10.780;2023-08-20T00:36:31;7.45;;;4.65;;
45114;SDS011;30877;43.706;10.780;2023-08-20T00:38:59;6.90;;;4.30;;
45114;SDS011;30877;43.706;10.780;2023-08-20T00:41:29;6.65;;;4.13;;
45114;SDS011;30877;43.706;10.780;2023-08-20T00:43:57;6.80;;;4.55;;
45114;SDS011;30877;43.706;10.780;2023-08-20T00:46:26;5.85;;;3.88;;
45114;SDS011;30877;43.706;10.780;2023-08-20T00:48:55;6.15;;;4.30;;
45114;SDS011;30877;43.706;10.780;2023-08-20T00:51:24;7.93;;;4.63;;
45114;SDS011;30877;43.706;10.780;2023-08-20T00:53:52;7.35;;;4.75;;
45114;SDS011;30877;43.706;10.780;2023-08-20T00:56:21;4.93;;;4.40;;
45114;SDS011;30877;43.706;10.780;2023-08-20T00:58:50;6.65;;;4.57;;
45114;SDS011;30877;43.706;10.780;2023-08-20T01:01:20;7.32;;;4.90;;
45114;SDS011;30877;43.706;10.780;2023-08-20T01:03:49;6.18;;;4.88;;
45114;SDS011;30877;43.706;10.780;2023-08-20T01:06:19;4.20;;;3.80;;
45114;SDS011;30877;43.706;10.780;2023-08-20T01:08:57;6.80;;;4.38;;
45114;SDS011;30877;43.706;10.780;2023-08-20T01:11:32;6.28;;;4.30;;
45114;SDS011;30877;43.706;10.780;2023-08-20T01:14:15;5.13;;;4.28;;
45114;SDS011;30877;43.706;10.780;2023-08-20T01:16:44;7.47;;;4.38;;
45114;SDS011;30877;43.706;10.780;2023-08-20T01:19:15;5.78;;;4.38;;
45114;SDS011;30877;43.706;10.780;2023-08-20T01:21:47;5.18;;;4.57;;
45114;SDS011;30877;43.706;10.780;2023-08-20T01:24:24;8.55;;;4.90;;
45114;SDS011;30877;43.706;10.780;2023-08-20T01:27:14;6.57;;;4.80;;
45114;SDS011;30877;43.706;10.780;2023-08-20T01:32:24;6.78;;;5.18;;
45114;SDS011;30877;43.706;10.780;2023-08-20T01:34:52;5.00;;;4.47;;
45114;SDS011;30877;43.706;10.780;2023-08-20T01:37:21;6.35;;;4.57;;
45114;SDS011;30877;43.706;10.780;2023-08-20T01:39:49;6.40;;;4.25;;
45114;SDS011;30877;43.706;10.780;2023-08-20T01:42:18;6.93;;;4.28;;
45114;SDS011;30877;43.706;10.780;2023-08-20T01:44:46;6.18;;;4.22;;
45114;SDS011;30877;43.706;10.780;2023-08-20T01:47:16;5.53;;;4.88;;
45114;SDS011;30877;43.706;10.780;2023-08-20T01:49:44;6.03;;;4.30;;
45114;SDS011;30877;43.706;10.780;2023-08-20T01:52:12;7.03;;;4.93;;
45114;SDS011;30877;43.706;10.780;2023-08-20T01:54:41;8.02;;;4.57;;
45114;SDS011;30877;43.706;10.780;2023-08-20T01:57:10;7.28;;;4.72;;
45114;SDS011;30877;43.706;10.780;2023-08-20T01:59:38;5.30;;;4.53;;
45114;SDS011;30877;43.706;10.780;2023-08-20T02:02:06;7.57;;;4.75;;
45114;SDS011;30877;43.706;10.780;2023-08-20T02:04:36;6.65;;;4.65;;
45114;SDS011;30877;43.706;10.780;2023-08-20T02:07:05;6.13;;;4.30;;
45114;SDS011;30877;43.706;10.780;2023-08-20T02:09:33;5.80;;;4.65;;
45114;SDS011;30877;43.706;10.780;2023-08-20T02:12:02;7.20;;;4.60;;
45114;SDS011;30877;43.706;10.780;2023-08-20T02:14:31;6.47;;;4.30;;
45114;SDS011;30877;43.706;10.780;2023-08-20T02:17:02;5.95;;;4.88;;
45114;SDS011;30877;43.706;10.780;2023-08-20T02:19:30;6.57;;;4.63;;
45114;SDS011;30877;43.706;10.780;2023-08-20T02:22:00;5.25;;;4.30;;
45114;SDS011;30877;43.706;10.780;2023-08-20T02:24:28;5.45;;;4.68;;
45114;SDS011;30877;43.706;10.780;2023-08-20T02:26:56;5.40;;;4.45;;
45114;SDS011;30877;43.706;10.780;2023-08-20T02:29:25;4.45;;;4.05;;
45114;SDS011;30877;43.706;10.780;2023-08-20T02:31:53;6.50;;;4.82;;
45114;SDS011;30877;43.706;10.780;2023-08-20T02:34:22;12.45;;;4.68;;
45114;SDS011;30877;43.706;10.780;2023-08-20T02:36:50;6.78;;;4.90;;
45114;SDS011;30877;43.706;10.780;2023-08-20T02:39:20;5.20;;;4.40;;
45114;SDS011;30877;43.706;10.780;2023-08-20T02:41:48;6.82;;;5.22;;
45114;SDS011;30877;43.706;10.780;2023-08-20T02:44:16;6.63;;;5.00;;
45114;SDS011;30877;43.706;10.780;2023-08-20T02:46:46;5.38;;;4.80;;
45114;SDS011;30877;43.706;10.780;2023-08-20T02:49:14;7.47;;;4.90;;
45114;SDS011;30877;43.706;10.780;2023-08-20T02:51:42;5.68;;;5.13;;
45114;SDS011;30877;43.706;10.780;2023-08-20T02:54:11;8.63;;;5.00;;
45114;SDS011;30877;43.706;10.780;2023-08-20T02:56:41;4.78;;;4.30;;
45114;SDS011;30877;43.706;10.780;2023-08-20T02:59:09;7.63;;;4.80;;
45114;SDS011;30877;43.706;10.780;2023-08-20T03:01:37;10.70;;;4.80;;
45114;SDS011;30877;43.706;10.780;2023-08-20T03:04:06;5.57;;;4.53;;
45114;SDS011;30877;43.706;10.780;2023-08-20T03:06:34;6.93;;;4.90;;
45114;SDS011;30877;43.706;10.780;2023-08-20T03:09:03;10.30;;;4.95;;
45114;SDS011;30877;43.706;10.780;2023-08-20T03:11:31;7.15;;;5.03;;
45114;SDS011;30877;43.706;10.780;2023-08-20T03:14:01;5.97;;;4.82;;
45114;SDS011;30877;43.706;10.780;2023-08-20T03:16:30;6.88;;;4.70;;
45114;SDS011;30877;43.706;10.780;2023-08-20T03:19:01;5.20;;;4.50;;
45114;SDS011;30877;43.706;10.780;2023-08-20T03:21:30;5.78;;;4.93;;
45114;SDS011;30877;43.706;10.780;2023-08-20T03:23:58;5.80;;;5.25;;
45114;SDS011;30877;43.706;10.780;2023-08-20T03:26:27;10.02;;;4.80;;
45114;SDS011;30877;43.706;10.780;2023-08-20T03:28:55;7.65;;;5.40;;
45114;SDS011;30877;43.706;10.780;2023-08-20T03:31:25;6.75;;;4.88;;
45114;SDS011;30877;43.706;10.780;2023-08-20T03:33:54;5.72;;;4.53;;
45114;SDS011;30877;43.706;10.780;2023-08-20T03:36:22;6.65;;;5.25;;
45114;SDS011;30877;43.706;10.780;2023-08-20T03:38:51;5.43;;;4.78;;
45114;SDS011;30877;43.706;10.780;2023-08-20T03:41:20;7.13;;;5.22;;
45114;SDS011;30877;43.706;10.780;2023-08-20T03:43:49;5.93;;;4.80;;
45114;SDS011;30877;43.706;10.780;2023-08-20T03:46:17;5.35;;;4.72;;
45114;SDS011;30877;43.706;10.780;2023-08-20T03:48:47;6.20;;;5.28;;
45114;SDS011;30877;43.706;10.780;2023-08-20T03:51:16;7.90;;;4.55;;
45114;SDS011;30877;43.706;10.780;2023-08-20T03:53:44;8.30;;;5.20;;
45114;SDS011;30877;43.706;10.780;2023-08-20T03:56:12;5.53;;;4.82;;
45114;SDS011;30877;43.706;10.780;2023-08-20T03:58:42;6.28;;;5.05;;
45114;SDS011;30877;43.706;10.780;2023-08-20T04:01:11;8.10;;;5.00;;
45114;SDS011;30877;43.706;10.780;2023-08-20T04:03:39;5.90;;;5.15;;
45114;SDS011;30877;43.706;10.780;2023-08-20T04:06:09;6.82;;;5.05;;
45114;SDS011;30877;43.706;10.780;2023-08-20T04:08:37;7.65;;;5.43;;
45114;SDS011;30877;43.706;10.780;2023-08-20T04:11:06;7.00;;;6.40;;
45114;SDS011;30877;43.706;10.780;2023-08-20T04:13:34;6.85;;;6.22;;
45114;SDS011;30877;43.706;10.780;2023-08-20T04:16:03;10.05;;;6.50;;
45114;SDS011;30877;43.706;10.780;2023-08-20T04:18:32;8.50;;;5.72;;
45114;SDS011;30877;43.706;10.780;2023-08-20T04:21:01;6.43;;;5.82;;
45114;SDS011;30877;43.706;10.780;2023-08-20T04:23:30;6.60;;;5.60;;
45114;SDS011;30877;43.706;10.780;2023-08-20T04:25:59;6.07;;;5.50;;
45114;SDS011;30877;43.706;10.780;2023-08-20T04:28:27;5.68;;;5.00;;
45114;SDS011;30877;43.706;10.780;2023-08-20T04:30:55;5.82;;;4.90;;
45114;SDS011;30877;43.706;10.780;2023-08-20T04:33:32;5.75;;;5.25;;
45114;SDS011;30877;43.706;10.780;2023-08-20T04:36:01;7.93;;;5.88;;
45114;SDS011;30877;43.706;10.780;2023-08-20T04:38:30;7.65;;;4.97;;
45114;SDS011;30877;43.706;10.780;2023-08-20T04:41:00;6.90;;;5.53;;
45114;SDS011;30877;43.706;10.780;2023-08-20T04:43:28;6.93;;;4.90;;
45114;SDS011;30877;43.706;10.780;2023-08-20T04:45:58;8.35;;;5.50;;
45114;SDS011;30877;43.706;10.780;2023-08-20T04:48:28;7.93;;;5.60;;
45114;SDS011;30877;43.706;10.780;2023-08-20T04:50:57;6.07;;;5.15;;
45114;SDS011;30877;43.706;10.780;2023-08-20T04:53:27;8.23;;;5.40;;
45114;SDS011;30877;43.706;10.780;2023-08-20T04:55:58;5.78;;;4.95;;
45114;SDS011;30877;43.706;10.780;2023-08-20T04:58:26;5.80;;;5.30;;
45114;SDS011;30877;43.706;10.780;2023-08-20T05:00:55;6.50;;;5.43;;
45114;SDS011;30877;43.706;10.780;2023-08-20T05:03:23;8.77;;;5.45;;
45114;SDS011;30877;43.706;10.780;2023-08-20T05:05:53;6.28;;;5.55;;
45114;SDS011;30877;43.706;10.780;2023-08-20T05:08:21;6.35;;;5.05;;
45114;SDS011;30877;43.706;10.780;2023-08-20T05:10:49;6.63;;;5.50;;
45114;SDS011;30877;43.706;10.780;2023-08-20T05:13:20;6.30;;;5.43;;
45114;SDS011;30877;43.706;10.780;2023-08-20T05:15:49;5.45;;;4.95;;
45114;SDS011;30877;43.706;10.780;2023-08-20T05:18:18;6.38;;;5.18;;
45114;SDS011;30877;43.706;10.780;2023-08-20T05:20:46;7.28;;;6.10;;
45114;SDS011;30877;43.706;10.780;2023-08-20T05:23:16;7.13;;;5.57;;
45114;SDS011;30877;43.706;10.780;2023-08-20T05:25:44;6.00;;;5.15;;
45114;SDS011;30877;43.706;10.780;2023-08-20T05:28:12;5.97;;;4.82;;
45114;SDS011;30877;43.706;10.780;2023-08-20T05:30:42;9.55;;;5.20;;
45114;SDS011;30877;43.706;10.780;2023-08-20T05:33:10;5.93;;;5.15;;
45114;SDS011;30877;43.706;10.780;2023-08-20T05:35:39;6.70;;;5.13;;
45114;SDS011;30877;43.706;10.780;2023-08-20T05:38:07;7.70;;;5.60;;
45114;SDS011;30877;43.706;10.780;2023-08-20T05:40:36;6.93;;;5.45;;
45114;SDS011;30877;43.706;10.780;2023-08-20T05:43:05;7.85;;;6.07;;
45114;SDS011;30877;43.706;10.780;2023-08-20T05:45:33;7.68;;;5.45;;
45114;SDS011;30877;43.706;10.780;2023-08-20T05:48:04;7.32;;;6.07;;
45114;SDS011;30877;43.706;10.780;2023-08-20T05:50:33;7.07;;;5.90;;
45114;SDS011;30877;43.706;10.780;2023-08-20T05:53:01;8.82;;;5.53;;
45114;SDS011;30877;43.706;10.780;2023-08-20T05:55:31;7.72;;;5.95;;
45114;SDS011;30877;43.706;10.780;2023-08-20T05:57:59;8.23;;;6.13;;
45114;SDS011;30877;43.706;10.780;2023-08-20T06:00:28;8.98;;;5.65;;
45114;SDS011;30877;43.706;10.780;2023-08-20T06:02:56;6.68;;;6.03;;
45114;SDS011;30877;43.706;10.780;2023-08-20T06:05:26;7.70;;;5.68;;
45114;SDS011;30877;43.706;10.780;2023-08-20T06:07:54;7.40;;;6.20;;
45114;SDS011;30877;43.706;10.780;2023-08-20T06:10:22;7.03;;;5.78;;
45114;SDS011;30877;43.706;10.780;2023-08-20T06:12:51;9.40;;;5.82;;
45114;SDS011;30877;43.706;10.780;2023-08-20T06:15:19;6.25;;;5.60;;
45114;SDS011;30877;43.706;10.780;2023-08-20T06:17:47;6.80;;;6.10;;
45114;SDS011;30877;43.706;10.780;2023-08-20T06:20:16;7.72;;;6.07;;
45114;SDS011;30877;43.706;10.780;2023-08-20T06:22:47;7.07;;;5.53;;
45114;SDS011;30877;43.706;10.780;2023-08-20T06:25:15;7.10;;;6.40;;
45114;SDS011;30877;43.706;10.780;2023-08-20T06:27:44;10.13;;;6.55;;
45114;SDS011;30877;43.706;10.780;2023-08-20T06:30:12;8.85;;;5.88;;
45114;SDS011;30877;43.706;10.780;2023-08-20T06:32:41;7.03;;;6.43;;
45114;SDS011;30877;43.706;10.780;2023-08-20T06:35:11;11.18;;;6.90;;
45114;SDS011;30877;43.706;10.780;2023-08-20T06:37:39;7.78;;;6.28;;
45114;SDS011;30877;43.706;10.780;2023-08-20T06:40:10;8.88;;;6.30;;
45114;SDS011;30877;43.706;10.780;2023-08-20T06:42:41;7.57;;;6.18;;
45114;SDS011;30877;43.706;10.780;2023-08-20T06:45:09;10.88;;;7.38;;
45114;SDS011;30877;43.706;10.780;2023-08-20T06:47:37;8.27;;;6.60;;
45114;SDS011;30877;43.706;10.780;2023-08-20T06:50:06;6.68;;;6.07;;
45114;SDS011;30877;43.706;10.780;2023-08-20T06:52:35;10.25;;;5.88;;
45114;SDS011;30877;43.706;10.780;2023-08-20T06:55:03;9.75;;;6.53;;
45114;SDS011;30877;43.706;10.780;2023-08-20T06:57:34;8.95;;;8.02;;
45114;SDS011;30877;43.706;10.780;2023-08-20T07:00:03;10.15;;;7.80;;
45114;SDS011;30877;43.706;10.780;2023-08-20T07:02:32;9.00;;;7.57;;
45114;SDS011;30877;43.706;10.780;2023-08-20T07:05:00;8.25;;;6.13;;
45114;SDS011;30877;43.706;10.780;2023-08-20T07:07:29;9.10;;;6.18;;
45114;SDS011;30877;43.706;10.780;2023-08-20T07:09:57;9.02;;;5.95;;
45114;SDS011;30877;43.706;10.780;2023-08-20T07:12:25;11.18;;;9.07;;
45114;SDS011;30877;43.706;10.780;2023-08-20T07:14:55;17.45;;;15.57;;
45114;SDS011;30877;43.706;10.780;2023-08-20T07:17:23;11.25;;;8.65;;
45114;SDS011;30877;43.706;10.780;2023-08-20T07:19:51;9.45;;;7.47;;
45114;SDS011;30877;43.706;10.780;2023-08-20T07:22:19;9.75;;;7.70;;
45114;SDS011;30877;43.706;10.780;2023-08-20T07:24:47;9.68;;;7.40;;
45114;SDS011;30877;43.706;10.780;2023-08-20T07:27:15;11.65;;;6.38;;
45114;SDS011;30877;43.706;10.780;2023-08-20T07:29:43;7.20;;;6.15;;
45114;SDS011;30877;43.706;10.780;2023-08-20T07:32:13;7.18;;;6.32;;
45114;SDS011;30877;43.706;10.780;2023-08-20T07:34:43;8.15;;;6.00;;
45114;SDS011;30877;43.706;10.780;2023-08-20T07:37:12;6.57;;;5.88;;
45114;SDS011;30877;43.706;10.780;2023-08-20T07:39:40;7.40;;;6.50;;
45114;SDS011;30877;43.706;10.780;2023-08-20T07:42:08;6.35;;;4.82;;
45114;SDS011;30877;43.706;10.780;2023-08-20T07:44:38;5.82;;;5.28;;
45114;SDS011;30877;43.706;10.780;2023-08-20T07:47:06;6.22;;;5.05;;
45114;SDS011;30877;43.706;10.780;2023-08-20T07:49:36;5.90;;;5.10;;
45114;SDS011;30877;43.706;10.780;2023-08-20T07:52:04;7.15;;;5.35;;
45114;SDS011;30877;43.706;10.780;2023-08-20T07:54:32;5.65;;;5.07;;
45114;SDS011;30877;43.706;10.780;2023-08-20T07:57:00;9.55;;;5.30;;
45114;SDS011;30877;43.706;10.780;2023-08-20T07:59:28;8.50;;;5.30;;
45114;SDS011;30877;43.706;10.780;2023-08-20T08:01:57;5.55;;;5.03;;
45114;SDS011;30877;43.706;10.780;2023-08-20T08:04:25;5.90;;;5.10;;
45114;SDS011;30877;43.706;10.780;2023-08-20T08:06:54;4.90;;;4.45;;
45114;SDS011;30877;43.706;10.780;2023-08-20T08:09:25;5.47;;;4.97;;
45114;SDS011;30877;43.706;10.780;2023-08-20T08:11:55;5.53;;;4.80;;
45114;SDS011;30877;43.706;10.780;2023-08-20T08:14:23;5.35;;;4.70;;
45114;SDS011;30877;43.706;10.780;2023-08-20T08:16:52;5.32;;;4.82;;
45114;SDS011;30877;43.706;10.780;2023-08-20T08:19:22;6.20;;;5.05;;
45114;SDS011;30877;43.706;10.780;2023-08-20T08:21:50;5.65;;;4.72;;
45114;SDS011;30877;43.706;10.780;2023-08-20T08:24:20;7.47;;;4.82;;
45114;SDS011;30877;43.706;10.780;2023-08-20T08:26:48;5.00;;;4.57;;
45114;SDS011;30877;43.706;10.780;2023-08-20T08:29:16;5.65;;;5.15;;
45114;SDS011;30877;43.706;10.780;2023-08-20T08:31:44;5.25;;;4.70;;
45114;SDS011;30877;43.706;10.780;2023-08-20T08:34:12;5.78;;;5.28;;
45114;SDS011;30877;43.706;10.780;2023-08-20T08:36:41;5.53;;;4.97;;
45114;SDS011;30877;43.706;10.780;2023-08-20T08:39:09;7.45;;;5.50;;
45114;SDS011;30877;43.706;10.780;2023-08-20T08:41:39;6.03;;;5.32;;
45114;SDS011;30877;43.706;10.780;2023-08-20T08:44:09;5.65;;;4.72;;
45114;SDS011;30877;43.706;10.780;2023-08-20T08:46:38;5.88;;;5.38;;
45114;SDS011;30877;43.706;10.780;2023-08-20T08:49:06;6.80;;;5.57;;
45114;SDS011;30877;43.706;10.780;2023-08-20T08:51:37;6.55;;;5.78;;
45114;SDS011;30877;43.706;10.780;2023-08-20T08:54:06;6.05;;;5.35;;
45114;SDS011;30877;43.706;10.780;2023-08-20T08:56:36;5.80;;;5.22;;
45114;SDS011;30877;43.706;10.780;2023-08-20T08:59:06;6.15;;;5.55;;
45114;SDS011;30877;43.706;10.780;2023-08-20T09:01:37;6.28;;;5.68;;
45114;SDS011;30877;43.706;10.780;2023-08-20T09:04:07;6.45;;;5.80;;
45114;SDS011;30877;43.706;10.780;2023-08-20T09:06:44;6.40;;;5.80;;
45114;SDS011;30877;43.706;10.780;2023-08-20T09:09:13;6.63;;;5.72;;
45114;SDS011;30877;43.706;10.780;2023-08-20T09:11:42;13.35;;;6.53;;
45114;SDS011;30877;43.706;10.780;2023-08-20T09:14:20;7.78;;;5.80;;
45114;SDS011;30877;43.706;10.780;2023-08-20T09:16:56;11.45;;;5.60;;
45114;SDS011;30877;43.706;10.780;2023-08-20T09:19:25;9.20;;;6.40;;
45114;SDS011;30877;43.706;10.780;2023-08-20T09:22:00;8.05;;;5.85;;
45114;SDS011;30877;43.706;10.780;2023-08-20T09:24:32;7.25;;;5.38;;
45114;SDS011;30877;43.706;10.780;2023-08-20T09:27:04;6.57;;;5.53;;
45114;SDS011;30877;43.706;10.780;2023-08-20T09:29:45;6.35;;;5.75;;
45114;SDS011;30877;43.706;10.780;2023-08-20T09:32:16;5.60;;;5.10;;
45114;SDS011;30877;43.706;10.780;2023-08-20T09:34:45;5.25;;;4.85;;
45114;SDS011;30877;43.706;10.780;2023-08-20T09:37:13;5.70;;;4.97;;
45114;SDS011;30877;43.706;10.780;2023-08-20T09:39:42;5.35;;;4.95;;
45114;SDS011;30877;43.706;10.780;2023-08-20T09:42:12;8.68;;;5.90;;
45114;SDS011;30877;43.706;10.780;2023-08-20T09:44:42;5.80;;;5.05;;
45114;SDS011;30877;43.706;10.780;2023-08-20T09:47:17;5.95;;;4.40;;
45114;SDS011;30877;43.706;10.780;2023-08-20T09:49:49;5.45;;;4.60;;
45114;SDS011;30877;43.706;10.780;2023-08-20T09:52:21;4.55;;;4.15;;
45114;SDS011;30877;43.706;10.780;2023-08-20T09:54:55;5.20;;;4.70;;
45114;SDS011;30877;43.706;10.780;2023-08-20T09:57:32;4.85;;;4.45;;
45114;SDS011;30877;43.706;10.780;2023-08-20T10:00:08;4.95;;;4.55;;
45114;SDS011;30877;43.706;10.780;2023-08-20T10:02:41;5.82;;;4.82;;
45114;SDS011;30877;43.706;10.780;2023-08-20T10:05:10;7.90;;;4.60;;
45114;SDS011;30877;43.706;10.780;2023-08-20T10:07:39;4.78;;;4.38;;
45114;SDS011;30877;43.706;10.780;2023-08-20T10:10:09;5.50;;;4.95;;
45114;SDS011;30877;43.706;10.780;2023-08-20T10:12:40;5.30;;;4.78;;
45114;SDS011;30877;43.706;10.780;2023-08-20T10:15:13;4.72;;;4.32;;
45114;SDS011;30877;43.706;10.780;2023-08-20T10:17:43;5.63;;;4.88;;
45114;SDS011;30877;43.706;10.780;2023-08-20T10:20:13;4.90;;;4.40;;
45114;SDS011;30877;43.706;10.780;2023-08-20T10:22:44;4.88;;;4.47;;
45114;SDS011;30877;43.706;10.780;2023-08-20T10:25:22;5.38;;;4.88;;
45114;SDS011;30877;43.706;10.780;2023-08-20T10:27:51;4.47;;;4.07;;
45114;SDS011;30877;43.706;10.780;2023-08-20T10:30:23;4.95;;;4.45;;
45114;SDS011;30877;43.706;10.780;2023-08-20T10:32:54;5.10;;;4.35;;
45114;SDS011;30877;43.706;10.780;2023-08-20T10:35:25;4.90;;;4.18;;
45114;SDS011;30877;43.706;10.780;2023-08-20T10:38:02;4.53;;;4.13;;
45114;SDS011;30877;43.706;10.780;2023-08-20T10:40:48;6.88;;;4.22;;
45114;SDS011;30877;43.706;10.780;2023-08-20T10:43:28;4.53;;;4.13;;
45114;SDS011;30877;43.706;10.780;2023-08-20T10:48:50;5.30;;;4.32;;
45114;SDS011;30877;43.706;10.780;2023-08-20T10:51:19;5.07;;;4.55;;
45114;SDS011;30877;43.706;10.780;2023-08-20T10:54:05;5.07;;;4.68;;
45114;SDS011;30877;43.706;10.780;2023-08-20T10:56:42;4.68;;;4.28;;
45114;SDS011;30877;43.706;10.780;2023-08-20T10:59:13;4.85;;;4.45;;
45114;SDS011;30877;43.706;10.780;2023-08-20T11:01:45;5.43;;;4.45;;
45114;SDS011;30877;43.706;10.780;2023-08-20T11:04:15;5.85;;;4.47;;
45114;SDS011;30877;43.706;10.780;2023-08-20T11:06:44;6.68;;;4.85;;
45114;SDS011;30877;43.706;10.780;2023-08-20T11:09:13;5.10;;;4.68;;
45114;SDS011;30877;43.706;10.780;2023-08-20T11:11:42;5.28;;;3.95;;
45114;SDS011;30877;43.706;10.780;2023-08-20T11:14:11;4.63;;;4.20;;
45114;SDS011;30877;43.706;10.780;2023-08-20T11:16:45;4.35;;;3.92;;
45114;SDS011;30877;43.706;10.780;2023-08-20T11:19:19;4.25;;;3.95;;
45114;SDS011;30877;43.706;10.780;2023-08-20T11:21:48;4.38;;;3.95;;
45114;SDS011;30877;43.706;10.780;2023-08-20T11:24:17;4.00;;;3.08;;
45114;SDS011;30877;43.706;10.780;2023-08-20T11:26:47;4.35;;;3.35;;
45114;SDS011;30877;43.706;10.780;2023-08-20T11:29:15;5.07;;;3.22;;
45114;SDS011;30877;43.706;10.780;2023-08-20T11:31:50;5.32;;;3.60;;
45114;SDS011;30877;43.706;10.780;2023-08-20T11:34:19;4.85;;;3.53;;
45114;SDS011;30877;43.706;10.780;2023-08-20T11:36:48;5.97;;;3.50;;
45114;SDS011;30877;43.706;10.780;2023-08-20T11:39:17;5.45;;;3.38;;
45114;SDS011;30877;43.706;10.780;2023-08-20T11:41:45;5.90;;;3.78;;
45114;SDS011;30877;43.706;10.780;2023-08-20T11:44:19;5.68;;;4.03;;
45114;SDS011;30877;43.706;10.780;2023-08-20T11:46:50;5.60;;;3.80;;
45114;SDS011;30877;43.706;10.780;2023-08-20T11:49:26;4.00;;;3.70;;
45114;SDS011;30877;43.706;10.780;2023-08-20T11:51:56;4.15;;;3.85;;
45114;SDS011;30877;43.706;10.780;2023-08-20T11:54:24;3.92;;;3.63;;
45114;SDS011;30877;43.706;10.780;2023-08-20T11:57:01;5.13;;;3.90;;
45114;SDS011;30877;43.706;10.780;2023-08-20T11:59:30;4.28;;;3.95;;
45114;SDS011;30877;43.706;10.780;2023-08-20T12:02:01;5.32;;;3.60;;
45114;SDS011;30877;43.706;10.780;2023-08-20T12:04:31;3.60;;;3.30;;
45114;SDS011;30877;43.706;10.780;2023-08-20T12:07:02;4.20;;;3.53;;
45114;SDS011;30877;43.706;10.780;2023-08-20T12:09:32;4.85;;;3.40;;
45114;SDS011;30877;43.706;10.780;2023-08-20T12:12:01;5.88;;;3.97;;
45114;SDS011;30877;43.706;10.780;2023-08-20T12:14:32;5.60;;;3.28;;
45114;SDS011;30877;43.706;10.780;2023-08-20T12:17:02;4.07;;;3.78;;
45114;SDS011;30877;43.706;10.780;2023-08-20T12:19:32;3.92;;;3.55;;
45114;SDS011;30877;43.706;10.780;2023-08-20T12:22:03;4.28;;;3.88;;
45114;SDS011;30877;43.706;10.780;2023-08-20T12:24:31;5.80;;;4.00;;
45114;SDS011;30877;43.706;10.780;2023-08-20T12:26:59;5.60;;;4.07;;
45114;SDS011;30877;43.706;10.780;2023-08-20T12:29:28;5.85;;;3.63;;
45114;SDS011;30877;43.706;10.780;2023-08-20T12:31:56;5.68;;;4.00;;
45114;SDS011;30877;43.706;10.780;2023-08-20T12:34:27;4.03;;;3.63;;
45114;SDS011;30877;43.706;10.780;2023-08-20T12:36:56;4.47;;;4.07;;
45114;SDS011;30877;43.706;10.780;2023-08-20T12:39:25;3.75;;;3.45;;
45114;SDS011;30877;43.706;10.780;2023-08-20T12:41:54;4.20;;;3.85;;
45114;SDS011;30877;43.706;10.780;2023-08-20T12:44:22;4.00;;;3.35;;
45114;SDS011;30877;43.706;10.780;2023-08-20T12:46:50;4.93;;;3.70;;
45114;SDS011;30877;43.706;10.780;2023-08-20T12:49:19;3.42;;;3.13;;
45114;SDS011;30877;43.706;10.780;2023-08-20T12:51:49;3.50;;;3.20;;
45114;SDS011;30877;43.706;10.780;2023-08-20T12:54:17;6.28;;;3.70;;
45114;SDS011;30877;43.706;10.780;2023-08-20T12:56:46;4.57;;;3.65;;
45114;SDS011;30877;43.706;10.780;2023-08-20T12:59:14;6.30;;;3.80;;
45114;SDS011;30877;43.706;10.780;2023-08-20T13:01:43;6.93;;;4.25;;
45114;SDS011;30877;43.706;10.780;2023-08-20T13:04:12;5.13;;;3.90;;
45114;SDS011;30877;43.706;10.780;2023-08-20T13:06:41;4.43;;;3.17;;
45114;SDS011;30877;43.706;10.780;2023-08-20T13:09:12;4.75;;;3.45;;
45114;SDS011;30877;43.706;10.780;2023-08-20T13:11:42;7.75;;;3.78;;
45114;SDS011;30877;43.706;10.780;2023-08-20T13:14:12;4.00;;;3.30;;
45114;SDS011;30877;43.706;10.780;2023-08-20T13:16:41;5.47;;;2.78;;
45114;SDS011;30877;43.706;10.780;2023-08-20T13:19:10;3.20;;;2.90;;
45114;SDS011;30877;43.706;10.780;2023-08-20T13:21:38;3.53;;;2.88;;
45114;SDS011;30877;43.706;10.780;2023-08-20T13:24:07;3.17;;;2.75;;
45114;SDS011;30877;43.706;10.780;2023-08-20T13:26:37;4.07;;;2.85;;
45114;SDS011;30877;43.706;10.780;2023-08-20T13:29:06;6.93;;;3.25;;
45114;SDS011;30877;43.706;10.780;2023-08-20T13:31:34;5.03;;;3.15;;
45114;SDS011;30877;43.706;10.780;2023-08-20T13:34:03;5.05;;;2.95;;
45114;SDS011;30877;43.706;10.780;2023-08-20T13:36:32;5.63;;;3.15;;
45114;SDS011;30877;43.706;10.780;2023-08-20T13:39:00;6.45;;;3.30;;
45114;SDS011;30877;43.706;10.780;2023-08-20T13:41:28;7.53;;;3.65;;
45114;SDS011;30877;43.706;10.780;2023-08-20T13:43:58;5.82;;;3.00;;
45114;SDS011;30877;43.706;10.780;2023-08-20T13:46:27;6.50;;;3.05;;
45114;SDS011;30877;43.706;10.780;2023-08-20T13:48:56;5.22;;;3.20;;
45114;SDS011;30877;43.706;10.780;2023-08-20T13:51:24;3.63;;;3.10;;
45114;SDS011;30877;43.706;10.780;2023-08-20T13:53:53;3.53;;;3.20;;
45114;SDS011;30877;43.706;10.780;2023-08-20T13:56:21;3.10;;;2.80;;
45114;SDS011;30877;43.706;10.780;2023-08-20T13:58:49;3.90;;;3.10;;
45114;SDS011;30877;43.706;10.780;2023-08-20T14:01:19;5.13;;;3.28;;
45114;SDS011;30877;43.706;10.780;2023-08-20T14:03:48;5.40;;;2.90;;
45114;SDS011;30877;43.706;10.780;2023-08-20T14:06:17;5.00;;;3.05;;
45114;SDS011;30877;43.706;10.780;2023-08-20T14:08:45;3.78;;;2.60;;
45114;SDS011;30877;43.706;10.780;2023-08-20T14:11:13;4.45;;;2.75;;
45114;SDS011;30877;43.706;10.780;2023-08-20T14:13:42;4.90;;;3.30;;
45114;SDS011;30877;43.706;10.780;2023-08-20T14:16:10;3.88;;;2.90;;
45114;SDS011;30877;43.706;10.780;2023-08-20T14:18:40;4.80;;;3.20;;
45114;SDS011;30877;43.706;10.780;2023-08-20T14:21:09;4.28;;;3.80;;
45114;SDS011;30877;43.706;10.780;2023-08-20T14:23:37;3.53;;;3.22;;
45114;SDS011;30877;43.706;10.780;2023-08-20T14:26:06;5.20;;;3.20;;
45114;SDS011;30877;43.706;10.780;2023-08-20T14:28:35;4.47;;;3.30;;
45114;SDS011;30877;43.706;10.780;2023-08-20T14:31:03;6.18;;;3.83;;
45114;SDS011;30877;43.706;10.780;2023-08-20T14:33:31;4.72;;;3.80;;
45114;SDS011;30877;43.706;10.780;2023-08-20T14:36:01;4.13;;;3.78;;
45114;SDS011;30877;43.706;10.780;2023-08-20T14:38:30;5.05;;;3.90;;
45114;SDS011;30877;43.706;10.780;2023-08-20T14:40:59;3.97;;;3.67;;
45114;SDS011;30877;43.706;10.780;2023-08-20T14:43:30;4.03;;;3.72;;
45114;SDS011;30877;43.706;10.780;2023-08-20T14:45:59;5.55;;;4.30;;
45114;SDS011;30877;43.706;10.780;2023-08-20T14:48:28;6.35;;;3.28;;
45114;SDS011;30877;43.706;10.780;2023-08-20T14:50:57;3.78;;;3.40;;
45114;SDS011;30877;43.706;10.780;2023-08-20T14:53:27;6.05;;;3.88;;